sensor_id;sensor_type;location;lat;lon;timestamp;P1;durP1;ratioP1;P2;durP2;ratioP2
18376;SDS011;9315;52.624;13.544;2023-05-16T00:01:59;12.67;;;6.93;;
18376;SDS011;9315;52.624;13.544;2023-05-16T00:04:27;10.83;;;7.10;;
18376;SDS011;9315;52.624;13.544;2023-05-16T00:06:54;8.93;;;6.73;;
18376;SDS011;9315;52.624;13.544;2023-05-16T00:09:21;11.63;;;7.17;;
18376;SDS011;9315;52.624;13.544;2023-05-16T00:11:49;11.17;;;6.93;;
18376;SDS011;9315;52.624;13.544;2023-05-16T00:14:16;9.40;;;7.40;;
18376;SDS011;9315;52.624;13.544;2023-05-16T00:16:44;11.67;;;7.10;;
18376;SDS011;9315;52.624;13.544;2023-05-16T00:19:13;10.47;;;7.30;;
18376;SDS011;9315;52.624;13.544;2023-05-16T00:21:40;7.73;;;6.77;;
18376;SDS011;9315;52.624;13.544;2023-05-16T00:24:09;9.80;;;6.53;;
18376;SDS011;9315;52.624;13.544;2023-05-16T00:26:37;11.07;;;7.20;;
18376;SDS011;9315;52.624;13.544;2023-05-16T00:29:04;9.53;;;6.80;;
18376;SDS011;9315;52.624;13.544;2023-05-16T00:31:31;10.33;;;7.27;;
18376;SDS011;9315;52.624;13.544;2023-05-16T00:33:59;10.47;;;7.80;;
18376;SDS011;9315;52.624;13.544;2023-05-16T00:36:26;12.63;;;7.53;;
18376;SDS011;9315;52.624;13.544;2023-05-16T00:38:54;9.77;;;7.47;;
18376;SDS011;9315;52.624;13.544;2023-05-16T00:41:21;13.47;;;8.13;;
18376;SDS011;9315;52.624;13.544;2023-05-16T00:43:48;13.90;;;9.07;;
18376;SDS011;9315;52.624;13.544;2023-05-16T00:46:15;17.37;;;9.63;;
18376;SDS011;9315;52.624;13.544;2023-05-16T00:48:43;13.50;;;8.27;;
18376;SDS011;9315;52.624;13.544;2023-05-16T00:51:10;16.33;;;9.00;;
18376;SDS011;9315;52.624;13.544;2023-05-16T00:53:37;15.07;;;8.43;;
18376;SDS011;9315;52.624;13.544;2023-05-16T00:56:04;12.73;;;8.20;;
18376;SDS011;9315;52.624;13.544;2023-05-16T00:58:32;12.33;;;7.17;;
18376;SDS011;9315;52.624;13.544;2023-05-16T01:01:00;14.00;;;7.67;;
18376;SDS011;9315;52.624;13.544;2023-05-16T01:03:29;10.30;;;7.83;;
18376;SDS011;9315;52.624;13.544;2023-05-16T01:05:57;12.43;;;7.80;;
18376;SDS011;9315;52.624;13.544;2023-05-16T01:08:24;12.07;;;7.93;;
18376;SDS011;9315;52.624;13.544;2023-05-16T01:11:11;12.27;;;8.07;;
18376;SDS011;9315;52.624;13.544;2023-05-16T01:14:20;12.10;;;8.20;;
18376;SDS011;9315;52.624;13.544;2023-05-16T01:20:26;15.73;;;8.80;;
18376;SDS011;9315;52.624;13.544;2023-05-16T01:27:08;15.13;;;7.97;;
18376;SDS011;9315;52.624;13.544;2023-05-16T01:29:37;12.90;;;8.77;;
18376;SDS011;9315;52.624;13.544;2023-05-16T01:32:04;12.57;;;9.37;;
18376;SDS011;9315;52.624;13.544;2023-05-16T01:34:31;16.93;;;10.23;;
18376;SDS011;9315;52.624;13.544;2023-05-16T01:39:45;15.33;;;9.93;;
18376;SDS011;9315;52.624;13.544;2023-05-16T01:42:33;16.37;;;11.70;;
18376;SDS011;9315;52.624;13.544;2023-05-16T01:45:09;14.90;;;11.97;;
18376;SDS011;9315;52.624;13.544;2023-05-16T01:47:57;17.17;;;11.77;;
18376;SDS011;9315;52.624;13.544;2023-05-16T01:50:37;23.13;;;12.63;;
18376;SDS011;9315;52.624;13.544;2023-05-16T01:53:18;18.13;;;11.87;;
18376;SDS011;9315;52.624;13.544;2023-05-16T01:55:55;21.33;;;12.70;;
18376;SDS011;9315;52.624;13.544;2023-05-16T01:58:25;23.63;;;13.03;;
18376;SDS011;9315;52.624;13.544;2023-05-16T02:01:02;17.93;;;13.33;;
18376;SDS011;9315;52.624;13.544;2023-05-16T02:03:30;17.97;;;12.47;;
18376;SDS011;9315;52.624;13.544;2023-05-16T02:05:58;20.87;;;13.63;;
18376;SDS011;9315;52.624;13.544;2023-05-16T02:08:26;16.77;;;11.00;;
18376;SDS011;9315;52.624;13.544;2023-05-16T02:10:54;25.33;;;13.80;;
18376;SDS011;9315;52.624;13.544;2023-05-16T02:13:21;17.87;;;13.03;;
18376;SDS011;9315;52.624;13.544;2023-05-16T02:15:48;23.43;;;13.47;;
18376;SDS011;9315;52.624;13.544;2023-05-16T02:18:16;20.50;;;14.27;;
18376;SDS011;9315;52.624;13.544;2023-05-16T02:20:43;24.40;;;14.20;;
18376;SDS011;9315;52.624;13.544;2023-05-16T02:23:10;21.20;;;14.40;;
18376;SDS011;9315;52.624;13.544;2023-05-16T02:25:38;21.73;;;14.53;;
18376;SDS011;9315;52.624;13.544;2023-05-16T02:28:05;21.47;;;11.77;;
18376;SDS011;9315;52.624;13.544;2023-05-16T02:30:32;21.23;;;13.00;;
18376;SDS011;9315;52.624;13.544;2023-05-16T02:32:59;19.23;;;13.23;;
18376;SDS011;9315;52.624;13.544;2023-05-16T02:35:26;22.97;;;13.73;;
18376;SDS011;9315;52.624;13.544;2023-05-16T02:37:54;19.73;;;12.90;;
18376;SDS011;9315;52.624;13.544;2023-05-16T02:40:22;21.60;;;12.60;;
18376;SDS011;9315;52.624;13.544;2023-05-16T02:42:49;20.63;;;11.90;;
18376;SDS011;9315;52.624;13.544;2023-05-16T02:45:16;23.77;;;12.90;;
18376;SDS011;9315;52.624;13.544;2023-05-16T02:47:43;19.13;;;12.63;;
18376;SDS011;9315;52.624;13.544;2023-05-16T02:50:10;20.93;;;11.37;;
18376;SDS011;9315;52.624;13.544;2023-05-16T02:52:37;19.27;;;11.60;;
18376;SDS011;9315;52.624;13.544;2023-05-16T02:55:05;18.03;;;11.67;;
18376;SDS011;9315;52.624;13.544;2023-05-16T02:57:47;20.80;;;11.57;;
18376;SDS011;9315;52.624;13.544;2023-05-16T03:00:15;14.33;;;11.23;;
18376;SDS011;9315;52.624;13.544;2023-05-16T03:02:44;17.57;;;11.40;;
18376;SDS011;9315;52.624;13.544;2023-05-16T03:05:11;17.97;;;11.07;;
18376;SDS011;9315;52.624;13.544;2023-05-16T03:07:38;17.50;;;10.93;;
18376;SDS011;9315;52.624;13.544;2023-05-16T03:10:06;17.13;;;11.63;;
18376;SDS011;9315;52.624;13.544;2023-05-16T03:12:34;20.23;;;12.57;;
18376;SDS011;9315;52.624;13.544;2023-05-16T03:15:01;20.37;;;11.80;;
18376;SDS011;9315;52.624;13.544;2023-05-16T03:17:29;21.77;;;11.40;;
18376;SDS011;9315;52.624;13.544;2023-05-16T03:19:56;21.37;;;11.23;;
18376;SDS011;9315;52.624;13.544;2023-05-16T03:22:23;18.63;;;11.60;;
18376;SDS011;9315;52.624;13.544;2023-05-16T03:24:51;24.23;;;11.67;;
18376;SDS011;9315;52.624;13.544;2023-05-16T03:27:18;22.17;;;12.30;;
18376;SDS011;9315;52.624;13.544;2023-05-16T03:29:45;18.30;;;11.63;;
18376;SDS011;9315;52.624;13.544;2023-05-16T03:32:12;18.83;;;10.73;;
18376;SDS011;9315;52.624;13.544;2023-05-16T03:34:39;21.33;;;11.23;;
18376;SDS011;9315;52.624;13.544;2023-05-16T03:37:06;20.47;;;12.23;;
18376;SDS011;9315;52.624;13.544;2023-05-16T03:39:35;20.47;;;11.73;;
18376;SDS011;9315;52.624;13.544;2023-05-16T03:42:03;15.03;;;10.67;;
18376;SDS011;9315;52.624;13.544;2023-05-16T03:44:30;20.33;;;11.83;;
18376;SDS011;9315;52.624;13.544;2023-05-16T03:46:58;19.37;;;11.67;;
18376;SDS011;9315;52.624;13.544;2023-05-16T03:49:25;22.97;;;12.30;;
18376;SDS011;9315;52.624;13.544;2023-05-16T03:51:55;21.17;;;11.97;;
18376;SDS011;9315;52.624;13.544;2023-05-16T03:54:23;25.43;;;12.80;;
18376;SDS011;9315;52.624;13.544;2023-05-16T03:56:50;19.13;;;11.60;;
18376;SDS011;9315;52.624;13.544;2023-05-16T03:59:17;16.30;;;11.87;;
18376;SDS011;9315;52.624;13.544;2023-05-16T04:01:44;21.20;;;11.87;;
18376;SDS011;9315;52.624;13.544;2023-05-16T04:04:12;18.50;;;12.53;;
18376;SDS011;9315;52.624;13.544;2023-05-16T04:06:41;20.30;;;11.57;;
18376;SDS011;9315;52.624;13.544;2023-05-16T04:09:08;19.00;;;12.87;;
18376;SDS011;9315;52.624;13.544;2023-05-16T04:11:35;26.33;;;12.53;;
18376;SDS011;9315;52.624;13.544;2023-05-16T04:14:03;23.47;;;13.57;;
18376;SDS011;9315;52.624;13.544;2023-05-16T04:16:31;24.03;;;13.23;;
18376;SDS011;9315;52.624;13.544;2023-05-16T04:18:58;18.77;;;13.43;;
18376;SDS011;9315;52.624;13.544;2023-05-16T04:21:25;22.57;;;13.03;;
18376;SDS011;9315;52.624;13.544;2023-05-16T04:23:52;26.03;;;15.13;;
18376;SDS011;9315;52.624;13.544;2023-05-16T04:26:19;27.30;;;13.47;;
18376;SDS011;9315;52.624;13.544;2023-05-16T04:28:47;23.30;;;13.53;;
18376;SDS011;9315;52.624;13.544;2023-05-16T04:31:14;27.70;;;14.57;;
18376;SDS011;9315;52.624;13.544;2023-05-16T04:33:42;26.20;;;13.67;;
18376;SDS011;9315;52.624;13.544;2023-05-16T04:36:09;20.30;;;13.00;;
18376;SDS011;9315;52.624;13.544;2023-05-16T04:38:36;25.70;;;14.70;;
18376;SDS011;9315;52.624;13.544;2023-05-16T04:41:03;22.00;;;14.20;;
18376;SDS011;9315;52.624;13.544;2023-05-16T04:43:30;23.30;;;13.80;;
18376;SDS011;9315;52.624;13.544;2023-05-16T04:45:58;22.83;;;13.57;;
18376;SDS011;9315;52.624;13.544;2023-05-16T04:48:25;27.70;;;13.63;;
18376;SDS011;9315;52.624;13.544;2023-05-16T04:50:52;24.80;;;14.80;;
18376;SDS011;9315;52.624;13.544;2023-05-16T04:53:19;27.00;;;14.97;;
18376;SDS011;9315;52.624;13.544;2023-05-16T04:55:46;29.67;;;13.90;;
18376;SDS011;9315;52.624;13.544;2023-05-16T04:58:14;21.73;;;13.13;;
18376;SDS011;9315;52.624;13.544;2023-05-16T05:00:41;22.93;;;13.07;;
18376;SDS011;9315;52.624;13.544;2023-05-16T05:03:08;21.97;;;13.50;;
18376;SDS011;9315;52.624;13.544;2023-05-16T05:05:35;22.87;;;13.50;;
18376;SDS011;9315;52.624;13.544;2023-05-16T05:08:03;23.77;;;13.33;;
18376;SDS011;9315;52.624;13.544;2023-05-16T05:10:30;23.50;;;12.67;;
18376;SDS011;9315;52.624;13.544;2023-05-16T05:12:59;19.87;;;12.80;;
18376;SDS011;9315;52.624;13.544;2023-05-16T05:15:26;25.00;;;13.57;;
18376;SDS011;9315;52.624;13.544;2023-05-16T05:17:54;22.57;;;11.73;;
18376;SDS011;9315;52.624;13.544;2023-05-16T05:20:24;24.97;;;12.47;;
18376;SDS011;9315;52.624;13.544;2023-05-16T05:22:53;31.53;;;13.83;;
18376;SDS011;9315;52.624;13.544;2023-05-16T05:25:20;19.23;;;11.67;;
18376;SDS011;9315;52.624;13.544;2023-05-16T05:27:47;22.77;;;11.27;;
18376;SDS011;9315;52.624;13.544;2023-05-16T05:30:17;31.97;;;13.13;;
18376;SDS011;9315;52.624;13.544;2023-05-16T05:32:44;18.77;;;11.53;;
18376;SDS011;9315;52.624;13.544;2023-05-16T05:35:12;16.40;;;11.37;;
18376;SDS011;9315;52.624;13.544;2023-05-16T05:37:40;14.47;;;9.87;;
18376;SDS011;9315;52.624;13.544;2023-05-16T05:40:07;19.10;;;10.90;;
18376;SDS011;9315;52.624;13.544;2023-05-16T05:42:35;17.53;;;10.83;;
18376;SDS011;9315;52.624;13.544;2023-05-16T05:45:05;20.23;;;9.83;;
18376;SDS011;9315;52.624;13.544;2023-05-16T05:47:33;16.00;;;9.50;;
18376;SDS011;9315;52.624;13.544;2023-05-16T05:50:00;14.83;;;9.40;;
18376;SDS011;9315;52.624;13.544;2023-05-16T05:52:29;21.40;;;9.60;;
18376;SDS011;9315;52.624;13.544;2023-05-16T05:54:56;17.27;;;9.53;;
18376;SDS011;9315;52.624;13.544;2023-05-16T05:57:25;18.07;;;10.20;;
18376;SDS011;9315;52.624;13.544;2023-05-16T05:59:53;14.47;;;9.87;;
18376;SDS011;9315;52.624;13.544;2023-05-16T06:02:23;14.00;;;8.87;;
18376;SDS011;9315;52.624;13.544;2023-05-16T06:04:50;19.10;;;10.17;;
18376;SDS011;9315;52.624;13.544;2023-05-16T06:07:17;14.77;;;9.73;;
18376;SDS011;9315;52.624;13.544;2023-05-16T06:09:45;19.87;;;10.40;;
18376;SDS011;9315;52.624;13.544;2023-05-16T06:12:12;16.53;;;9.67;;
18376;SDS011;9315;52.624;13.544;2023-05-16T06:14:39;15.23;;;9.80;;
18376;SDS011;9315;52.624;13.544;2023-05-16T06:17:06;15.37;;;10.80;;
18376;SDS011;9315;52.624;13.544;2023-05-16T06:19:33;19.23;;;10.70;;
18376;SDS011;9315;52.624;13.544;2023-05-16T06:22:03;17.63;;;11.00;;
18376;SDS011;9315;52.624;13.544;2023-05-16T06:24:30;15.07;;;9.97;;
18376;SDS011;9315;52.624;13.544;2023-05-16T06:26:58;15.37;;;9.83;;
18376;SDS011;9315;52.624;13.544;2023-05-16T06:29:25;13.90;;;8.97;;
18376;SDS011;9315;52.624;13.544;2023-05-16T06:31:52;15.07;;;8.73;;
18376;SDS011;9315;52.624;13.544;2023-05-16T06:34:19;12.80;;;8.90;;
18376;SDS011;9315;52.624;13.544;2023-05-16T06:36:53;12.93;;;7.93;;
18376;SDS011;9315;52.624;13.544;2023-05-16T06:39:20;16.23;;;8.83;;
18376;SDS011;9315;52.624;13.544;2023-05-16T06:41:48;12.53;;;7.87;;
18376;SDS011;9315;52.624;13.544;2023-05-16T06:44:15;16.87;;;8.23;;
18376;SDS011;9315;52.624;13.544;2023-05-16T06:46:42;12.97;;;8.50;;
18376;SDS011;9315;52.624;13.544;2023-05-16T06:49:09;16.07;;;7.83;;
18376;SDS011;9315;52.624;13.544;2023-05-16T06:51:36;13.33;;;7.70;;
18376;SDS011;9315;52.624;13.544;2023-05-16T06:54:03;12.63;;;8.50;;
18376;SDS011;9315;52.624;13.544;2023-05-16T06:56:31;13.93;;;7.33;;
18376;SDS011;9315;52.624;13.544;2023-05-16T06:58:58;14.10;;;8.40;;
18376;SDS011;9315;52.624;13.544;2023-05-16T07:01:27;20.60;;;7.77;;
18376;SDS011;9315;52.624;13.544;2023-05-16T07:03:54;13.03;;;6.90;;
18376;SDS011;9315;52.624;13.544;2023-05-16T07:06:21;12.03;;;7.23;;
18376;SDS011;9315;52.624;13.544;2023-05-16T07:08:49;11.37;;;6.60;;
18376;SDS011;9315;52.624;13.544;2023-05-16T07:11:16;10.93;;;6.73;;
18376;SDS011;9315;52.624;13.544;2023-05-16T07:13:43;13.80;;;6.63;;
18376;SDS011;9315;52.624;13.544;2023-05-16T07:16:11;11.97;;;6.70;;
18376;SDS011;9315;52.624;13.544;2023-05-16T07:18:38;12.40;;;6.03;;
18376;SDS011;9315;52.624;13.544;2023-05-16T07:21:06;12.40;;;5.93;;
18376;SDS011;9315;52.624;13.544;2023-05-16T07:23:33;14.40;;;6.00;;
18376;SDS011;9315;52.624;13.544;2023-05-16T07:26:01;9.00;;;5.80;;
18376;SDS011;9315;52.624;13.544;2023-05-16T07:28:28;9.87;;;5.53;;
18376;SDS011;9315;52.624;13.544;2023-05-16T07:30:55;12.07;;;5.83;;
18376;SDS011;9315;52.624;13.544;2023-05-16T07:33:23;10.10;;;5.50;;
18376;SDS011;9315;52.624;13.544;2023-05-16T07:35:52;10.90;;;5.47;;
18376;SDS011;9315;52.624;13.544;2023-05-16T07:38:39;9.03;;;5.20;;
18376;SDS011;9315;52.624;13.544;2023-05-16T07:41:07;8.97;;;5.03;;
18376;SDS011;9315;52.624;13.544;2023-05-16T07:43:34;9.40;;;4.97;;
18376;SDS011;9315;52.624;13.544;2023-05-16T07:46:04;10.27;;;4.50;;
18376;SDS011;9315;52.624;13.544;2023-05-16T07:48:31;7.23;;;4.50;;
18376;SDS011;9315;52.624;13.544;2023-05-16T07:50:59;8.90;;;4.40;;
18376;SDS011;9315;52.624;13.544;2023-05-16T07:53:26;10.57;;;4.20;;
18376;SDS011;9315;52.624;13.544;2023-05-16T07:55:53;6.90;;;4.10;;
18376;SDS011;9315;52.624;13.544;2023-05-16T07:58:21;8.97;;;4.40;;
18376;SDS011;9315;52.624;13.544;2023-05-16T08:00:48;10.60;;;5.03;;
18376;SDS011;9315;52.624;13.544;2023-05-16T08:03:15;6.03;;;4.00;;
18376;SDS011;9315;52.624;13.544;2023-05-16T08:05:43;5.77;;;4.30;;
18376;SDS011;9315;52.624;13.544;2023-05-16T08:08:11;4.53;;;3.27;;
18376;SDS011;9315;52.624;13.544;2023-05-16T08:10:41;4.73;;;2.90;;
18376;SDS011;9315;52.624;13.544;2023-05-16T08:13:08;5.90;;;3.30;;
18376;SDS011;9315;52.624;13.544;2023-05-16T08:15:35;7.03;;;3.00;;
18376;SDS011;9315;52.624;13.544;2023-05-16T08:18:05;4.73;;;3.03;;
18376;SDS011;9315;52.624;13.544;2023-05-16T08:20:41;6.40;;;3.03;;
18376;SDS011;9315;52.624;13.544;2023-05-16T08:23:08;4.37;;;2.70;;
18376;SDS011;9315;52.624;13.544;2023-05-16T08:25:36;4.03;;;2.67;;
18376;SDS011;9315;52.624;13.544;2023-05-16T08:28:03;6.07;;;2.50;;
18376;SDS011;9315;52.624;13.544;2023-05-16T08:30:30;6.20;;;2.47;;
18376;SDS011;9315;52.624;13.544;2023-05-16T08:32:57;7.13;;;2.23;;
18376;SDS011;9315;52.624;13.544;2023-05-16T08:35:25;8.63;;;2.50;;
18376;SDS011;9315;52.624;13.544;2023-05-16T08:37:52;5.73;;;1.90;;
18376;SDS011;9315;52.624;13.544;2023-05-16T08:40:19;3.93;;;1.90;;
18376;SDS011;9315;52.624;13.544;2023-05-16T08:42:51;7.93;;;2.13;;
18376;SDS011;9315;52.624;13.544;2023-05-16T08:45:21;7.50;;;2.50;;
18376;SDS011;9315;52.624;13.544;2023-05-16T08:47:49;5.37;;;2.40;;
18376;SDS011;9315;52.624;13.544;2023-05-16T08:50:23;4.63;;;2.47;;
18376;SDS011;9315;52.624;13.544;2023-05-16T08:52:51;12.97;;;2.70;;
18376;SDS011;9315;52.624;13.544;2023-05-16T08:55:19;3.53;;;2.07;;
18376;SDS011;9315;52.624;13.544;2023-05-16T08:57:49;8.17;;;2.00;;
18376;SDS011;9315;52.624;13.544;2023-05-16T09:00:19;6.73;;;1.90;;
18376;SDS011;9315;52.624;13.544;2023-05-16T09:02:48;8.30;;;1.70;;
18376;SDS011;9315;52.624;13.544;2023-05-16T09:05:21;6.70;;;1.90;;
18376;SDS011;9315;52.624;13.544;2023-05-16T09:07:49;5.03;;;1.77;;
18376;SDS011;9315;52.624;13.544;2023-05-16T09:10:16;8.73;;;2.10;;
18376;SDS011;9315;52.624;13.544;2023-05-16T09:12:44;6.37;;;1.63;;
18376;SDS011;9315;52.624;13.544;2023-05-16T09:15:11;7.47;;;1.30;;
18376;SDS011;9315;52.624;13.544;2023-05-16T09:17:44;6.47;;;1.20;;
18376;SDS011;9315;52.624;13.544;2023-05-16T09:20:14;7.27;;;1.10;;
18376;SDS011;9315;52.624;13.544;2023-05-16T09:22:54;6.00;;;1.20;;
18376;SDS011;9315;52.624;13.544;2023-05-16T09:25:26;7.03;;;1.30;;
18376;SDS011;9315;52.624;13.544;2023-05-16T09:27:58;5.73;;;1.03;;
18376;SDS011;9315;52.624;13.544;2023-05-16T09:30:29;4.97;;;1.13;;
18376;SDS011;9315;52.624;13.544;2023-05-16T09:33:00;6.17;;;1.03;;
18376;SDS011;9315;52.624;13.544;2023-05-16T09:35:28;4.53;;;0.93;;
18376;SDS011;9315;52.624;13.544;2023-05-16T09:38:14;2.67;;;0.90;;
18376;SDS011;9315;52.624;13.544;2023-05-16T09:40:43;4.93;;;0.97;;
18376;SDS011;9315;52.624;13.544;2023-05-16T09:43:13;9.50;;;1.70;;
18376;SDS011;9315;52.624;13.544;2023-05-16T09:46:28;6.23;;;1.10;;
18376;SDS011;9315;52.624;13.544;2023-05-16T09:48:55;9.20;;;1.20;;
18376;SDS011;9315;52.624;13.544;2023-05-16T09:51:23;8.03;;;1.20;;
18376;SDS011;9315;52.624;13.544;2023-05-16T09:53:51;6.17;;;1.27;;
18376;SDS011;9315;52.624;13.544;2023-05-16T09:56:19;5.73;;;1.00;;
18376;SDS011;9315;52.624;13.544;2023-05-16T09:58:46;4.00;;;1.10;;
18376;SDS011;9315;52.624;13.544;2023-05-16T10:01:19;5.73;;;1.30;;
18376;SDS011;9315;52.624;13.544;2023-05-16T10:03:46;3.93;;;1.00;;
18376;SDS011;9315;52.624;13.544;2023-05-16T10:06:14;7.17;;;1.33;;
18376;SDS011;9315;52.624;13.544;2023-05-16T10:08:44;6.53;;;1.30;;
18376;SDS011;9315;52.624;13.544;2023-05-16T10:11:12;7.17;;;1.10;;
18376;SDS011;9315;52.624;13.544;2023-05-16T10:13:41;10.80;;;1.60;;
18376;SDS011;9315;52.624;13.544;2023-05-16T10:16:15;8.33;;;1.30;;
18376;SDS011;9315;52.624;13.544;2023-05-16T10:18:43;7.43;;;1.00;;
18376;SDS011;9315;52.624;13.544;2023-05-16T10:21:14;3.93;;;0.93;;
18376;SDS011;9315;52.624;13.544;2023-05-16T10:23:47;6.10;;;1.10;;
18376;SDS011;9315;52.624;13.544;2023-05-16T10:26:17;5.07;;;1.13;;
18376;SDS011;9315;52.624;13.544;2023-05-16T10:28:47;6.17;;;0.93;;
18376;SDS011;9315;52.624;13.544;2023-05-16T10:31:15;6.23;;;1.20;;
18376;SDS011;9315;52.624;13.544;2023-05-16T10:33:43;6.17;;;1.10;;
18376;SDS011;9315;52.624;13.544;2023-05-16T10:36:12;6.37;;;1.20;;
18376;SDS011;9315;52.624;13.544;2023-05-16T10:38:40;5.20;;;1.17;;
18376;SDS011;9315;52.624;13.544;2023-05-16T10:41:11;6.00;;;1.07;;
18376;SDS011;9315;52.624;13.544;2023-05-16T10:43:39;10.67;;;1.17;;
18376;SDS011;9315;52.624;13.544;2023-05-16T10:46:21;5.43;;;1.20;;
18376;SDS011;9315;52.624;13.544;2023-05-16T10:48:49;7.33;;;1.30;;
18376;SDS011;9315;52.624;13.544;2023-05-16T10:54:04;6.87;;;1.33;;
18376;SDS011;9315;52.624;13.544;2023-05-16T10:56:37;8.30;;;1.47;;
18376;SDS011;9315;52.624;13.544;2023-05-16T10:59:24;7.03;;;1.93;;
18376;SDS011;9315;52.624;13.544;2023-05-16T11:01:53;9.90;;;1.37;;
18376;SDS011;9315;52.624;13.544;2023-05-16T11:04:22;8.67;;;1.53;;
18376;SDS011;9315;52.624;13.544;2023-05-16T11:06:52;5.30;;;1.50;;
18376;SDS011;9315;52.624;13.544;2023-05-16T11:09:22;15.50;;;1.70;;
18376;SDS011;9315;52.624;13.544;2023-05-16T11:17:02;7.53;;;1.20;;
18376;SDS011;9315;52.624;13.544;2023-05-16T11:19:47;10.60;;;1.80;;
18376;SDS011;9315;52.624;13.544;2023-05-16T11:22:25;8.10;;;1.33;;
18376;SDS011;9315;52.624;13.544;2023-05-16T11:27:32;44.87;;;18.80;;
18376;SDS011;9315;52.624;13.544;2023-05-16T11:30:10;5.20;;;1.47;;
18376;SDS011;9315;52.624;13.544;2023-05-16T11:32:41;7.57;;;1.37;;
18376;SDS011;9315;52.624;13.544;2023-05-16T11:35:12;6.47;;;1.40;;
18376;SDS011;9315;52.624;13.544;2023-05-16T11:37:42;9.97;;;1.70;;
18376;SDS011;9315;52.624;13.544;2023-05-16T11:40:15;12.70;;;2.37;;
18376;SDS011;9315;52.624;13.544;2023-05-16T11:42:44;7.90;;;1.40;;
18376;SDS011;9315;52.624;13.544;2023-05-16T11:45:15;12.63;;;0.90;;
18376;SDS011;9315;52.624;13.544;2023-05-16T11:47:47;9.73;;;1.30;;
18376;SDS011;9315;52.624;13.544;2023-05-16T11:50:16;11.23;;;1.87;;
18376;SDS011;9315;52.624;13.544;2023-05-16T11:52:58;8.80;;;1.20;;
18376;SDS011;9315;52.624;13.544;2023-05-16T11:55:26;11.27;;;1.37;;
18376;SDS011;9315;52.624;13.544;2023-05-16T11:58:07;7.93;;;1.60;;
18376;SDS011;9315;52.624;13.544;2023-05-16T12:00:35;11.07;;;1.30;;
18376;SDS011;9315;52.624;13.544;2023-05-16T12:03:02;10.03;;;1.40;;
18376;SDS011;9315;52.624;13.544;2023-05-16T12:05:31;10.17;;;1.43;;
18376;SDS011;9315;52.624;13.544;2023-05-16T12:08:01;14.20;;;1.87;;
18376;SDS011;9315;52.624;13.544;2023-05-16T12:10:32;11.47;;;1.37;;
18376;SDS011;9315;52.624;13.544;2023-05-16T12:13:00;23.70;;;1.67;;
18376;SDS011;9315;52.624;13.544;2023-05-16T12:15:28;10.93;;;1.53;;
18376;SDS011;9315;52.624;13.544;2023-05-16T12:17:58;8.70;;;1.50;;
18376;SDS011;9315;52.624;13.544;2023-05-16T12:20:25;6.73;;;1.40;;
18376;SDS011;9315;52.624;13.544;2023-05-16T12:22:56;11.50;;;1.43;;
18376;SDS011;9315;52.624;13.544;2023-05-16T12:25:24;5.90;;;1.20;;
18376;SDS011;9315;52.624;13.544;2023-05-16T12:28:07;9.80;;;1.07;;
18376;SDS011;9315;52.624;13.544;2023-05-16T12:30:35;6.80;;;1.17;;
18376;SDS011;9315;52.624;13.544;2023-05-16T12:35:39;11.43;;;1.40;;
18376;SDS011;9315;52.624;13.544;2023-05-16T12:38:11;7.33;;;1.30;;
18376;SDS011;9315;52.624;13.544;2023-05-16T12:40:41;10.53;;;1.47;;
18376;SDS011;9315;52.624;13.544;2023-05-16T12:43:16;7.17;;;1.57;;
18376;SDS011;9315;52.624;13.544;2023-05-16T12:45:50;8.63;;;1.20;;
18376;SDS011;9315;52.624;13.544;2023-05-16T12:48:21;9.17;;;1.30;;
18376;SDS011;9315;52.624;13.544;2023-05-16T12:50:50;9.80;;;0.97;;
18376;SDS011;9315;52.624;13.544;2023-05-16T12:53:20;11.87;;;1.40;;
18376;SDS011;9315;52.624;13.544;2023-05-16T12:55:47;13.03;;;1.50;;
18376;SDS011;9315;52.624;13.544;2023-05-16T12:58:14;6.93;;;1.30;;
18376;SDS011;9315;52.624;13.544;2023-05-16T13:00:42;8.57;;;1.33;;
18376;SDS011;9315;52.624;13.544;2023-05-16T13:03:10;6.93;;;1.40;;
18376;SDS011;9315;52.624;13.544;2023-05-16T13:05:37;7.50;;;1.50;;
18376;SDS011;9315;52.624;13.544;2023-05-16T13:08:04;8.67;;;0.93;;
18376;SDS011;9315;52.624;13.544;2023-05-16T13:10:32;9.83;;;1.00;;
18376;SDS011;9315;52.624;13.544;2023-05-16T13:13:00;4.80;;;0.90;;
18376;SDS011;9315;52.624;13.544;2023-05-16T13:15:28;8.13;;;1.10;;
18376;SDS011;9315;52.624;13.544;2023-05-16T13:17:56;6.43;;;1.30;;
18376;SDS011;9315;52.624;13.544;2023-05-16T13:20:24;8.07;;;1.03;;
18376;SDS011;9315;52.624;13.544;2023-05-16T13:22:51;7.30;;;1.40;;
18376;SDS011;9315;52.624;13.544;2023-05-16T13:25:18;7.20;;;1.20;;
18376;SDS011;9315;52.624;13.544;2023-05-16T13:27:46;12.97;;;1.50;;
18376;SDS011;9315;52.624;13.544;2023-05-16T13:30:14;7.20;;;1.00;;
18376;SDS011;9315;52.624;13.544;2023-05-16T13:32:41;5.03;;;1.10;;
18376;SDS011;9315;52.624;13.544;2023-05-16T13:35:08;5.93;;;1.23;;
18376;SDS011;9315;52.624;13.544;2023-05-16T13:37:36;8.68;;;1.23;;
18376;SDS011;9315;52.624;13.544;2023-05-16T13:40:03;8.05;;;1.25;;
18376;SDS011;9315;52.624;13.544;2023-05-16T13:42:35;6.97;;;1.42;;
18376;SDS011;9315;52.624;13.544;2023-05-16T13:45:04;7.95;;;1.13;;
18376;SDS011;9315;52.624;13.544;2023-05-16T13:47:33;10.63;;;1.40;;
18376;SDS011;9315;52.624;13.544;2023-05-16T13:50:00;8.50;;;1.17;;
18376;SDS011;9315;52.624;13.544;2023-05-16T13:52:31;8.35;;;0.85;;
18376;SDS011;9315;52.624;13.544;2023-05-16T13:55:02;9.00;;;1.20;;
18376;SDS011;9315;52.624;13.544;2023-05-16T13:57:30;13.82;;;1.27;;
18376;SDS011;9315;52.624;13.544;2023-05-16T13:59:58;3.78;;;1.00;;
18376;SDS011;9315;52.624;13.544;2023-05-16T14:02:28;7.20;;;1.10;;
18376;SDS011;9315;52.624;13.544;2023-05-16T14:04:56;11.95;;;1.17;;
18376;SDS011;9315;52.624;13.544;2023-05-16T14:07:23;4.53;;;0.93;;
18376;SDS011;9315;52.624;13.544;2023-05-16T14:09:50;5.05;;;1.08;;
18376;SDS011;9315;52.624;13.544;2023-05-16T14:12:18;8.45;;;1.17;;
18376;SDS011;9315;52.624;13.544;2023-05-16T14:14:45;9.55;;;1.60;;
18376;SDS011;9315;52.624;13.544;2023-05-16T14:17:12;14.82;;;1.50;;
18376;SDS011;9315;52.624;13.544;2023-05-16T14:19:40;5.63;;;1.30;;
18376;SDS011;9315;52.624;13.544;2023-05-16T14:22:07;6.10;;;1.33;;
18376;SDS011;9315;52.624;13.544;2023-05-16T14:24:35;8.05;;;1.05;;
18376;SDS011;9315;52.624;13.544;2023-05-16T14:27:04;6.18;;;0.82;;
18376;SDS011;9315;52.624;13.544;2023-05-16T14:29:31;3.63;;;0.90;;
18376;SDS011;9315;52.624;13.544;2023-05-16T14:31:59;3.58;;;0.90;;
18376;SDS011;9315;52.624;13.544;2023-05-16T14:34:26;4.97;;;0.90;;
18376;SDS011;9315;52.624;13.544;2023-05-16T14:36:53;4.68;;;1.08;;
18376;SDS011;9315;52.624;13.544;2023-05-16T14:39:20;5.00;;;1.05;;
18376;SDS011;9315;52.624;13.544;2023-05-16T14:41:48;6.68;;;0.80;;
18376;SDS011;9315;52.624;13.544;2023-05-16T14:44:15;6.65;;;0.73;;
18376;SDS011;9315;52.624;13.544;2023-05-16T14:46:42;3.33;;;0.90;;
18376;SDS011;9315;52.624;13.544;2023-05-16T14:49:10;3.22;;;0.77;;
18376;SDS011;9315;52.624;13.544;2023-05-16T14:51:37;7.20;;;1.15;;
18376;SDS011;9315;52.624;13.544;2023-05-16T14:54:04;4.38;;;1.23;;
18376;SDS011;9315;52.624;13.544;2023-05-16T14:56:31;7.07;;;0.80;;
18376;SDS011;9315;52.624;13.544;2023-05-16T14:58:58;4.53;;;0.80;;
18376;SDS011;9315;52.624;13.544;2023-05-16T15:01:26;4.50;;;0.75;;
18376;SDS011;9315;52.624;13.544;2023-05-16T15:03:54;3.63;;;0.93;;
18376;SDS011;9315;52.624;13.544;2023-05-16T15:06:22;8.55;;;0.98;;
18376;SDS011;9315;52.624;13.544;2023-05-16T15:08:51;10.48;;;1.17;;
18376;SDS011;9315;52.624;13.544;2023-05-16T15:11:20;5.80;;;0.70;;